createdAt,value
2023-01-26T00:01:57.185Z,158.95
2023-01-26T00:04:26.130Z,167.48
2023-01-26T00:06:54.662Z,177.45
2023-01-26T00:09:23.399Z,168.52
2023-01-26T00:11:53.181Z,167.45
2023-01-26T00:14:21.786Z,162.68
2023-01-26T00:16:50.171Z,158.25
2023-01-26T00:19:18.732Z,161.55
2023-01-26T00:21:47.139Z,169.23
2023-01-26T00:24:15.558Z,161.60
2023-01-26T00:26:44.195Z,154.63
2023-01-26T00:29:14.072Z,148.55
2023-01-26T00:31:42.526Z,162.02
2023-01-26T00:34:10.890Z,157.20
2023-01-26T00:36:39.299Z,153.05
2023-01-26T00:39:07.864Z,163.20
2023-01-26T00:41:54.125Z,165.75
2023-01-26T00:44:24.118Z,152.85
2023-01-26T00:46:52.849Z,145.45
2023-01-26T00:49:21.321Z,158.25
2023-01-26T00:51:49.730Z,154.55
2023-01-26T00:54:18.125Z,153.20
2023-01-26T00:56:46.690Z,163.27
2023-01-26T00:59:15.187Z,154.88
2023-01-26T01:01:45.100Z,164.00
2023-01-26T01:04:13.754Z,154.15
2023-01-26T01:06:42.322Z,148.65
2023-01-26T01:09:10.936Z,154.23
2023-01-26T01:11:39.543Z,161.48
2023-01-26T01:14:07.981Z,154.45
2023-01-26T01:16:36.425Z,152.35
2023-01-26T01:19:06.154Z,149.68
2023-01-26T01:21:36.261Z,157.65
2023-01-26T01:24:05.226Z,151.75
2023-01-26T01:26:33.788Z,158.48
2023-01-26T01:29:02.205Z,163.00
2023-01-26T01:31:30.922Z,171.13
2023-01-26T01:33:59.543Z,171.48
2023-01-26T01:36:31.244Z,149.95
2023-01-26T01:39:00.101Z,164.68
2023-01-26T01:41:28.620Z,161.05
2023-01-26T01:44:13.355Z,152.90
2023-01-26T01:46:48.232Z,141.65
2023-01-26T01:49:20.446Z,149.70
2023-01-26T01:51:55.197Z,146.43
2023-01-26T01:54:31.441Z,160.38
2023-01-26T01:57:03.784Z,168.73
2023-01-26T01:59:33.545Z,166.70
2023-01-26T02:02:01.961Z,149.32
2023-01-26T02:04:31.162Z,149.98
2023-01-26T02:07:02.494Z,164.63
2023-01-26T02:09:51.680Z,157.77
2023-01-26T02:14:53.104Z,148.75
2023-01-26T02:17:21.750Z,160.68
2023-01-26T02:19:59.419Z,161.48
2023-01-26T02:22:37.813Z,151.18
2023-01-26T02:25:14.065Z,159.77
2023-01-26T02:27:44.894Z,158.18
2023-01-26T02:30:16.922Z,142.55
2023-01-26T02:32:45.392Z,155.57
2023-01-26T02:35:13.839Z,161.15
2023-01-26T02:37:42.415Z,157.43
2023-01-26T02:40:22.798Z,160.60
2023-01-26T02:42:55.111Z,166.65
2023-01-26T02:45:27.402Z,151.00
2023-01-26T02:47:56.030Z,154.23
2023-01-26T02:50:23.700Z,155.68
2023-01-26T02:52:52.102Z,150.75
2023-01-26T02:55:22.490Z,162.15
2023-01-26T02:57:53.770Z,166.00
2023-01-26T03:00:24.603Z,154.10
2023-01-26T03:02:55.336Z,175.38
2023-01-26T03:05:23.930Z,171.32
2023-01-26T03:07:52.261Z,166.15
2023-01-26T03:10:22.225Z,174.25
2023-01-26T03:12:52.107Z,170.57
2023-01-26T03:15:37.962Z,169.07
2023-01-26T03:18:28.618Z,162.50
2023-01-26T03:21:15.031Z,160.80
2023-01-26T03:24:01.282Z,146.57
2023-01-26T03:26:47.776Z,149.15
2023-01-26T03:29:18.430Z,159.57
2023-01-26T03:31:47.309Z,145.70
2023-01-26T03:34:16.006Z,150.07
2023-01-26T03:36:44.485Z,143.70
2023-01-26T03:39:34.198Z,155.18
2023-01-26T03:42:21.134Z,150.10
2023-01-26T03:45:08.603Z,141.68
2023-01-26T03:47:56.319Z,145.98
2023-01-26T03:50:42.617Z,149.98
2023-01-26T03:53:33.485Z,151.48
2023-01-26T03:56:18.465Z,142.88
2023-01-26T03:58:48.417Z,146.13
2023-01-26T04:01:21.649Z,139.43
2023-01-26T04:04:09.481Z,144.52
2023-01-26T04:06:57.405Z,162.80
2023-01-26T04:09:26.165Z,147.43
2023-01-26T04:11:54.952Z,153.27
2023-01-26T04:14:49.462Z,151.63
2023-01-26T04:17:38.181Z,157.13
2023-01-26T04:20:25.588Z,169.13
2023-01-26T04:22:54.696Z,150.63
2023-01-26T04:25:23.448Z,155.98
2023-01-26T04:27:52.001Z,144.32
2023-01-26T04:30:20.889Z,148.93
2023-01-26T04:32:52.195Z,146.65
2023-01-26T04:35:20.813Z,164.65
2023-01-26T04:37:49.461Z,143.05
2023-01-26T04:40:18.115Z,143.43
2023-01-26T04:42:46.539Z,156.25
2023-01-26T04:45:15.061Z,140.80
2023-01-26T04:47:43.703Z,137.13
2023-01-26T04:50:13.967Z,140.02
2023-01-26T04:52:42.603Z,148.35
2023-01-26T04:55:11.096Z,151.68
2023-01-26T04:57:39.502Z,150.27
2023-01-26T05:00:10.795Z,134.02
2023-01-26T05:02:40.581Z,144.23
2023-01-26T05:05:09.972Z,148.68
2023-01-26T05:07:39.800Z,146.48
2023-01-26T05:10:09.189Z,145.05
2023-01-26T05:12:38.353Z,140.60
2023-01-26T05:15:07.793Z,135.77
2023-01-26T05:17:36.779Z,145.73
2023-01-26T05:20:05.932Z,146.88
2023-01-26T05:22:34.384Z,123.25
2023-01-26T05:25:04.544Z,134.63
2023-01-26T05:27:33.336Z,130.20
2023-01-26T05:30:01.995Z,127.88
2023-01-26T05:32:31.875Z,124.13
2023-01-26T05:35:00.447Z,136.52
2023-01-26T05:37:29.763Z,130.90
2023-01-26T05:39:58.606Z,123.60
2023-01-26T05:42:28.960Z,122.90
2023-01-26T05:44:57.455Z,121.63
2023-01-26T05:47:26.029Z,111.80
2023-01-26T05:49:54.566Z,111.53
2023-01-26T05:52:23.799Z,114.78
2023-01-26T05:54:52.308Z,103.30
2023-01-26T05:57:20.935Z,94.05
2023-01-26T05:59:50.757Z,98.30
2023-01-26T06:02:19.720Z,101.82
2023-01-26T06:04:48.645Z,84.20
2023-01-26T06:07:17.471Z,89.68
2023-01-26T06:09:46.368Z,87.07
2023-01-26T06:12:17.244Z,88.15
2023-01-26T06:14:47.306Z,85.15
2023-01-26T06:17:18.641Z,84.63
2023-01-26T06:19:47.663Z,87.60
2023-01-26T06:22:16.303Z,86.22
2023-01-26T06:24:44.846Z,87.63
2023-01-26T06:27:15.401Z,83.75
2023-01-26T06:29:44.626Z,87.55
2023-01-26T06:32:13.861Z,99.80
2023-01-26T06:34:43.818Z,90.57
2023-01-26T06:37:13.930Z,80.35
2023-01-26T06:39:42.621Z,93.70
2023-01-26T06:42:12.945Z,89.03
2023-01-26T06:44:41.614Z,86.57
2023-01-26T06:47:10.305Z,82.45
2023-01-26T06:49:38.836Z,89.70
2023-01-26T06:52:23.393Z,90.53
2023-01-26T06:54:52.672Z,89.32
2023-01-26T06:57:21.365Z,89.20
2023-01-26T06:59:50.016Z,87.90
2023-01-26T07:02:22.943Z,89.60
2023-01-26T07:04:52.010Z,76.15
2023-01-26T07:07:22.353Z,80.55
2023-01-26T07:09:53.796Z,80.82
2023-01-26T07:12:23.158Z,78.60
2023-01-26T07:14:53.706Z,83.10
2023-01-26T07:17:22.495Z,87.55
2023-01-26T07:19:50.928Z,77.40
2023-01-26T07:22:20.230Z,77.72
2023-01-26T07:24:50.311Z,81.35
2023-01-26T07:27:18.723Z,81.43
2023-01-26T07:29:47.427Z,81.13
2023-01-26T07:32:15.991Z,84.03
2023-01-26T07:34:44.540Z,86.22
2023-01-26T07:37:13.001Z,85.25
2023-01-26T07:39:41.457Z,83.32
2023-01-26T07:42:13.212Z,91.00
2023-01-26T07:44:41.847Z,86.35
2023-01-26T07:47:10.340Z,92.32
2023-01-26T07:49:39.147Z,82.70
2023-01-26T07:52:08.673Z,87.10
2023-01-26T07:54:37.221Z,80.80
2023-01-26T07:57:08.268Z,81.53
2023-01-26T07:59:38.159Z,85.07
2023-01-26T08:02:07.048Z,78.28
2023-01-26T08:04:35.881Z,82.85
2023-01-26T08:07:04.456Z,91.03
2023-01-26T08:09:33.334Z,78.45
2023-01-26T08:12:01.886Z,87.72
2023-01-26T08:14:45.082Z,82.05
2023-01-26T08:17:17.529Z,79.88
2023-01-26T08:19:46.430Z,79.47
2023-01-26T08:22:15.202Z,76.70
2023-01-26T08:24:43.719Z,87.22
2023-01-26T08:27:12.365Z,80.15
2023-01-26T08:29:59.308Z,86.55
2023-01-26T08:32:32.283Z,74.68
2023-01-26T08:35:01.064Z,72.68
2023-01-26T08:37:29.602Z,75.05
2023-01-26T08:39:58.060Z,72.97
2023-01-26T08:42:26.544Z,73.05
2023-01-26T08:44:55.075Z,72.57
2023-01-26T08:47:23.727Z,72.10
2023-01-26T08:49:54.055Z,74.50
2023-01-26T08:52:22.596Z,68.53
2023-01-26T08:54:51.189Z,68.82
2023-01-26T08:57:19.804Z,64.95
2023-01-26T08:59:48.442Z,64.05
2023-01-26T09:02:17.071Z,63.78
2023-01-26T09:04:45.607Z,69.90
2023-01-26T09:07:16.314Z,66.68
2023-01-26T09:09:44.942Z,74.88
2023-01-26T09:12:13.454Z,64.50
2023-01-26T09:14:42.338Z,59.20
2023-01-26T09:17:10.861Z,52.92
2023-01-26T09:19:39.982Z,61.83
2023-01-26T09:22:08.400Z,59.75
2023-01-26T09:24:38.388Z,62.38
2023-01-26T09:27:06.878Z,54.72
2023-01-26T09:29:35.614Z,58.65
2023-01-26T09:32:04.093Z,62.05
2023-01-26T09:34:33.097Z,57.92
2023-01-26T09:37:01.834Z,64.53
2023-01-26T09:39:30.472Z,56.00
2023-01-26T09:42:14.646Z,62.30
2023-01-26T09:44:57.189Z,55.97
2023-01-26T09:47:32.899Z,56.55
2023-01-26T09:50:10.650Z,55.97
2023-01-26T09:52:49.533Z,63.78
2023-01-26T09:57:54.284Z,45.65
2023-01-26T10:00:27.467Z,40.30
2023-01-26T10:03:06.357Z,43.92
2023-01-26T10:05:47.179Z,44.67
2023-01-26T10:08:27.365Z,34.38
2023-01-26T10:11:01.691Z,37.83
2023-01-26T10:13:32.224Z,40.80
2023-01-26T10:16:04.454Z,36.88
2023-01-26T10:18:36.196Z,35.33
2023-01-26T10:21:08.540Z,29.55
2023-01-26T10:23:37.438Z,36.35
2023-01-26T10:26:13.897Z,35.28
2023-01-26T10:28:46.635Z,34.05
2023-01-26T10:31:18.983Z,34.90
2023-01-26T10:33:52.673Z,26.30
2023-01-26T10:36:21.872Z,29.92
2023-01-26T10:38:51.086Z,27.10
2023-01-26T10:41:29.794Z,25.58
2023-01-26T10:44:02.507Z,28.40
2023-01-26T10:46:34.054Z,26.35
2023-01-26T10:49:06.043Z,20.08
2023-01-26T10:51:40.455Z,23.00
2023-01-26T10:54:21.564Z,19.85
2023-01-26T10:56:54.610Z,21.17
2023-01-26T10:59:30.643Z,27.92
2023-01-26T11:02:02.942Z,22.17
2023-01-26T11:04:36.273Z,26.45
2023-01-26T11:07:26.622Z,25.20
2023-01-26T11:12:26.772Z,30.88
2023-01-26T11:15:06.441Z,29.48
2023-01-26T11:17:44.940Z,24.48
2023-01-26T11:20:59.629Z,28.58
2023-01-26T11:23:57.814Z,27.05
2023-01-26T11:27:12.586Z,29.30
2023-01-26T11:29:57.385Z,28.90
2023-01-26T11:32:38.185Z,33.88
2023-01-26T11:35:17.696Z,29.95
2023-01-26T11:37:52.453Z,29.98
2023-01-26T11:40:30.627Z,25.52
2023-01-26T11:43:16.479Z,31.65
2023-01-26T11:46:06.038Z,33.47
2023-01-26T11:48:53.986Z,29.58
2023-01-26T11:51:36.378Z,32.47
2023-01-26T11:54:30.978Z,24.50
2023-01-26T11:57:09.950Z,25.23
2023-01-26T11:59:43.712Z,25.95
2023-01-26T12:02:30.921Z,30.92
2023-01-26T12:05:06.379Z,30.73
2023-01-26T12:07:54.554Z,28.92
2023-01-26T12:10:31.175Z,26.35
2023-01-26T12:13:09.626Z,27.30
2023-01-26T12:15:48.771Z,27.25
2023-01-26T12:18:26.300Z,24.70
2023-01-26T12:21:05.759Z,25.30
2023-01-26T12:23:48.934Z,26.80
2023-01-26T12:26:22.411Z,25.98
2023-01-26T12:29:10.173Z,26.23
2023-01-26T12:31:51.282Z,24.05
2023-01-26T12:34:28.316Z,25.98
2023-01-26T12:37:16.343Z,27.50
2023-01-26T12:39:48.520Z,27.05
2023-01-26T12:42:24.924Z,19.52
2023-01-26T12:45:01.895Z,25.60
2023-01-26T12:47:34.800Z,19.13
2023-01-26T12:50:20.994Z,24.50
2023-01-26T12:53:11.483Z,21.60
2023-01-26T12:55:50.316Z,24.45
2023-01-26T12:58:23.643Z,23.05
2023-01-26T13:01:01.986Z,25.98
2023-01-26T13:03:37.116Z,24.92
2023-01-26T13:06:24.821Z,27.30
2023-01-26T13:09:04.525Z,23.58
2023-01-26T13:11:46.015Z,26.63
2023-01-26T13:14:30.416Z,24.17
2023-01-26T13:17:42.604Z,25.92
2023-01-26T13:20:51.389Z,28.58
2023-01-26T13:23:43.136Z,29.02
2023-01-26T13:26:26.932Z,25.48
2023-01-26T13:29:33.884Z,29.45
2023-01-26T13:32:59.551Z,28.65
2023-01-26T13:35:30.650Z,33.38
2023-01-26T13:38:06.732Z,36.08
2023-01-26T13:40:38.677Z,38.25
2023-01-26T13:43:26.640Z,35.22
2023-01-26T13:46:21.622Z,37.45
2023-01-26T13:48:52.294Z,40.50
2023-01-26T13:51:26.821Z,48.95
2023-01-26T13:54:02.369Z,47.90
2023-01-26T13:56:35.368Z,44.42
2023-01-26T13:59:10.884Z,43.15
2023-01-26T14:01:45.982Z,54.67
2023-01-26T14:04:20.040Z,53.13
2023-01-26T14:06:56.551Z,38.58
2023-01-26T14:09:27.972Z,54.45
2023-01-26T14:12:00.754Z,58.55
2023-01-26T14:14:32.369Z,61.45
2023-01-26T14:17:07.755Z,59.92
2023-01-26T14:19:41.029Z,60.20
2023-01-26T14:22:13.489Z,57.17
2023-01-26T14:24:43.152Z,60.22
2023-01-26T14:27:30.293Z,65.25
2023-01-26T14:29:59.446Z,74.28
2023-01-26T14:32:30.368Z,64.90
2023-01-26T14:35:00.856Z,65.85
2023-01-26T14:37:29.908Z,60.13
2023-01-26T14:40:20.678Z,60.63
2023-01-26T14:42:51.540Z,61.92
2023-01-26T14:45:29.461Z,61.33
2023-01-26T14:48:03.333Z,44.40
2023-01-26T14:50:32.896Z,62.03
2023-01-26T14:53:04.510Z,66.75
2023-01-26T14:55:37.185Z,57.03
2023-01-26T14:58:16.985Z,68.13
2023-01-26T15:00:49.930Z,67.78
2023-01-26T15:03:26.988Z,68.55
2023-01-26T15:06:20.270Z,51.90
2023-01-26T15:09:21.245Z,58.88
2023-01-26T15:12:12.330Z,71.80
2023-01-26T15:14:50.853Z,76.25
2023-01-26T15:17:38.174Z,72.00
2023-01-26T15:20:42.777Z,67.70
2023-01-26T15:23:27.548Z,67.78
2023-01-26T15:25:57.028Z,82.30
2023-01-26T15:28:27.010Z,75.88
2023-01-26T15:30:57.837Z,87.40
2023-01-26T15:33:47.279Z,66.47
2023-01-26T15:39:05.735Z,79.80
2023-01-26T15:41:34.492Z,70.57
2023-01-26T15:44:03.141Z,60.42
2023-01-26T15:46:31.634Z,76.97
2023-01-26T15:49:00.516Z,78.00
2023-01-26T15:51:31.036Z,74.93
2023-01-26T15:54:00.289Z,67.45
2023-01-26T15:56:36.524Z,68.13
2023-01-26T15:59:05.625Z,65.32
2023-01-26T16:01:34.565Z,75.85
2023-01-26T16:04:04.492Z,83.53
2023-01-26T16:06:35.337Z,65.28
2023-01-26T16:09:04.945Z,62.13
2023-01-26T16:11:40.913Z,67.57
2023-01-26T16:14:13.422Z,76.30
2023-01-26T16:16:45.219Z,82.35
2023-01-26T16:19:34.670Z,65.63
2023-01-26T16:22:07.547Z,66.05
2023-01-26T16:24:36.946Z,70.47
2023-01-26T16:27:07.827Z,71.28
2023-01-26T16:29:43.668Z,63.65
2023-01-26T16:32:30.371Z,62.72
2023-01-26T16:34:59.359Z,62.55
2023-01-26T16:37:36.179Z,76.00
2023-01-26T16:40:06.083Z,61.92
2023-01-26T16:42:37.491Z,75.53
2023-01-26T16:45:08.291Z,64.40
2023-01-26T16:47:37.549Z,78.22
2023-01-26T16:50:07.053Z,72.07
2023-01-26T16:52:37.344Z,77.95
2023-01-26T16:55:12.763Z,89.55
2023-01-26T16:57:45.544Z,85.25
2023-01-26T17:00:17.539Z,76.22
2023-01-26T17:02:54.137Z,72.78
2023-01-26T17:05:23.607Z,81.13
2023-01-26T17:07:55.022Z,80.85
2023-01-26T17:10:28.444Z,98.57
2023-01-26T17:12:57.943Z,77.30
2023-01-26T17:15:28.423Z,97.47
2023-01-26T17:17:58.015Z,94.45
2023-01-26T17:20:27.085Z,71.57
2023-01-26T17:22:57.156Z,78.50
2023-01-26T17:25:26.024Z,92.05
2023-01-26T17:27:54.653Z,73.72
2023-01-26T17:30:23.781Z,105.38
2023-01-26T17:32:52.331Z,87.82
2023-01-26T17:35:21.971Z,85.82
2023-01-26T17:37:50.885Z,94.50
2023-01-26T17:40:20.748Z,82.75
2023-01-26T17:42:49.141Z,76.03
2023-01-26T17:45:17.647Z,79.65
2023-01-26T17:47:46.213Z,86.47
2023-01-26T17:50:15.253Z,93.93
2023-01-26T17:52:44.026Z,89.68
2023-01-26T17:55:12.849Z,79.93
2023-01-26T17:57:42.930Z,87.68
2023-01-26T18:00:12.982Z,97.35
2023-01-26T18:02:41.686Z,92.57
2023-01-26T18:05:11.038Z,102.75
2023-01-26T18:07:39.653Z,98.25
2023-01-26T18:10:09.857Z,83.57
2023-01-26T18:12:38.259Z,99.15
2023-01-26T18:15:09.154Z,95.30
2023-01-26T18:17:37.721Z,96.85
2023-01-26T18:20:07.150Z,97.65
2023-01-26T18:22:35.604Z,89.55
2023-01-26T18:25:04.423Z,87.75
2023-01-26T18:27:33.257Z,85.43
2023-01-26T18:30:01.687Z,98.43
2023-01-26T18:32:31.610Z,83.75
2023-01-26T18:35:00.128Z,94.28
2023-01-26T18:37:31.508Z,82.05
2023-01-26T18:40:03.491Z,88.80
2023-01-26T18:42:34.338Z,86.82
2023-01-26T18:45:04.631Z,90.18
2023-01-26T18:47:35.097Z,85.88
2023-01-26T18:50:04.049Z,90.47
2023-01-26T18:52:32.605Z,87.00
2023-01-26T18:55:01.879Z,75.38
2023-01-26T18:57:30.377Z,79.07
2023-01-26T18:59:58.813Z,83.32
2023-01-26T19:02:28.342Z,86.43
2023-01-26T19:04:58.355Z,82.75
2023-01-26T19:07:27.083Z,86.15
2023-01-26T19:09:55.674Z,72.97
2023-01-26T19:12:24.454Z,74.70
2023-01-26T19:14:52.995Z,71.68
2023-01-26T19:17:21.422Z,57.63
2023-01-26T19:19:50.601Z,72.93
2023-01-26T19:22:20.515Z,62.78
2023-01-26T19:24:49.038Z,62.42
2023-01-26T19:27:17.479Z,53.95
2023-01-26T19:29:46.004Z,59.97
2023-01-26T19:32:14.723Z,56.25
2023-01-26T19:34:43.864Z,51.22
2023-01-26T19:37:12.397Z,56.25
2023-01-26T19:39:42.239Z,49.28
2023-01-26T19:42:10.725Z,52.60
2023-01-26T19:44:39.479Z,41.97
2023-01-26T19:47:07.965Z,45.55
2023-01-26T19:49:36.730Z,37.05
2023-01-26T19:52:06.473Z,39.50
2023-01-26T19:54:42.078Z,46.63
2023-01-26T19:57:12.978Z,35.30
2023-01-26T19:59:43.025Z,39.47
2023-01-26T20:02:12.039Z,26.27
2023-01-26T20:04:41.414Z,28.40
2023-01-26T20:07:10.237Z,35.30
2023-01-26T20:09:40.171Z,27.98
2023-01-26T20:12:13.188Z,29.98
2023-01-26T20:14:42.039Z,31.77
2023-01-26T20:17:14.186Z,25.85
2023-01-26T20:19:44.552Z,26.42
2023-01-26T20:22:23.718Z,28.02
2023-01-26T20:24:54.309Z,19.60
2023-01-26T20:27:24.436Z,17.92
2023-01-26T20:29:53.470Z,17.70
2023-01-26T20:32:22.567Z,27.33
2023-01-26T20:34:52.501Z,17.33
2023-01-26T20:37:22.873Z,21.25
2023-01-26T20:39:57.414Z,17.98
2023-01-26T20:42:31.754Z,24.70
2023-01-26T20:45:03.404Z,23.15
2023-01-26T20:47:33.979Z,27.73
2023-01-26T20:50:03.061Z,15.60
2023-01-26T20:52:31.633Z,18.92
2023-01-26T20:55:02.264Z,29.95
2023-01-26T20:57:32.589Z,19.27
2023-01-26T21:00:01.536Z,18.25
2023-01-26T21:02:30.275Z,21.17
2023-01-26T21:04:59.325Z,27.70
2023-01-26T21:07:29.053Z,20.80
2023-01-26T21:09:58.261Z,19.60
2023-01-26T21:12:27.113Z,19.42
2023-01-26T21:14:57.501Z,24.95
2023-01-26T21:17:27.363Z,18.85
2023-01-26T21:19:59.770Z,22.40
2023-01-26T21:22:29.411Z,16.42
2023-01-26T21:24:58.151Z,23.33
2023-01-26T21:27:27.185Z,25.27
2023-01-26T21:29:57.850Z,22.00
2023-01-26T21:32:27.163Z,22.83
2023-01-26T21:35:03.779Z,24.98
2023-01-26T21:37:32.965Z,21.48
2023-01-26T21:40:01.774Z,28.95
2023-01-26T21:42:30.956Z,16.63
2023-01-26T21:45:18.335Z,13.52
2023-01-26T21:48:10.134Z,14.27
2023-01-26T21:51:05.723Z,24.60
2023-01-26T21:53:34.610Z,24.80
2023-01-26T21:56:04.815Z,16.25
2023-01-26T21:58:51.315Z,18.42
2023-01-26T22:01:22.941Z,28.48
2023-01-26T22:03:55.997Z,15.18
2023-01-26T22:06:25.187Z,21.45
2023-01-26T22:08:55.060Z,14.88
2023-01-26T22:11:24.486Z,24.58
2023-01-26T22:13:54.413Z,13.38
2023-01-26T22:16:28.368Z,13.13
2023-01-26T22:19:18.799Z,9.88
2023-01-26T22:21:49.855Z,12.57
2023-01-26T22:24:19.295Z,15.75
2023-01-26T22:26:48.275Z,21.25
2023-01-26T22:29:17.213Z,20.35
2023-01-26T22:31:47.388Z,18.73
2023-01-26T22:34:16.765Z,13.02
2023-01-26T22:36:45.679Z,17.75
2023-01-26T22:39:14.671Z,24.95
2023-01-26T22:41:43.424Z,9.38
2023-01-26T22:44:12.208Z,7.50
2023-01-26T22:46:41.153Z,18.45
2023-01-26T22:49:11.994Z,11.20
2023-01-26T22:51:41.343Z,13.80
2023-01-26T22:54:10.465Z,8.25
2023-01-26T22:56:38.986Z,9.27
2023-01-26T22:59:07.647Z,10.80
2023-01-26T23:01:37.406Z,12.80
2023-01-26T23:04:07.310Z,13.10
2023-01-26T23:06:37.223Z,16.02
2023-01-26T23:09:05.844Z,15.50
2023-01-26T23:11:34.512Z,13.80
2023-01-26T23:14:03.059Z,9.77
2023-01-26T23:16:32.374Z,10.02
2023-01-26T23:19:00.866Z,15.80
2023-01-26T23:21:30.565Z,12.55
2023-01-26T23:24:00.452Z,9.30
2023-01-26T23:26:28.937Z,12.32
2023-01-26T23:28:57.646Z,10.65
2023-01-26T23:31:26.236Z,14.15
2023-01-26T23:33:54.888Z,17.65
2023-01-26T23:36:23.378Z,11.88
2023-01-26T23:38:52.655Z,13.27
2023-01-26T23:41:22.710Z,13.88
2023-01-26T23:43:51.524Z,10.52
2023-01-26T23:46:20.019Z,12.18
2023-01-26T23:48:48.450Z,15.68
2023-01-26T23:51:17.035Z,18.27
2023-01-26T23:53:45.596Z,18.63
2023-01-26T23:56:16.374Z,14.02
2023-01-26T23:58:46.773Z,21.88
